Terminal Aerodrome Forecast
Issued by NWS Hastings, NE

Home | Current Version | Previous Version | Text Only | Print | Product List | Glossary On
Versions: 1 2 3 4 5 6 7 8 9 10 11 12 13
000
FTUS45 KGID 281131
TAFEAR
TAF
KEAR 281131Z 2812/2912 VRB04KT P6SM SCT250
     FM281500 28012KT P6SM SCT250
     FM281900 32019G26KT P6SM SCT250
     FM290200 33023G32KT P6SM FEW025 SCT080
     FM290700 34021G29KT P6SM BKN025
      AMD LTD TO CLD VIS AND WIND=

USA.gov is the U.S. government's official web portal to all federal, state and local government web resources and services.